createdAt,value
2022-09-10T00:01:29.691Z,100.00
2022-09-10T00:03:56.543Z,100.00
2022-09-10T00:06:27.727Z,100.00
2022-09-10T00:08:58.818Z,100.00
2022-09-10T00:11:31.628Z,100.00
2022-09-10T00:14:00.003Z,100.00
2022-09-10T00:16:27.732Z,100.00
2022-09-10T00:18:55.051Z,100.00
2022-09-10T00:21:21.601Z,99.65
2022-09-10T00:23:48.672Z,98.07
2022-09-10T00:26:22.574Z,97.14
2022-09-10T00:28:51.908Z,96.43
2022-09-10T00:31:20.437Z,95.81
2022-09-10T00:33:47.141Z,94.56
2022-09-10T00:36:16.062Z,94.57
2022-09-10T00:38:42.614Z,94.05
2022-09-10T00:41:09.790Z,93.54
2022-09-10T00:43:52.568Z,94.09
2022-09-10T00:46:25.302Z,93.96
2022-09-10T00:48:55.698Z,93.93
2022-09-10T00:51:23.808Z,95.11
2022-09-10T00:53:50.915Z,95.37
2022-09-10T00:56:17.679Z,95.14
2022-09-10T00:58:46.462Z,94.99
2022-09-10T01:01:13.533Z,95.08
2022-09-10T01:03:42.611Z,96.17
2022-09-10T01:06:09.155Z,97.50
2022-09-10T01:08:35.603Z,98.62
2022-09-10T01:11:26.887Z,99.56
2022-09-10T01:14:12.466Z,100.00
2022-09-10T01:17:00.728Z,100.00
2022-09-10T01:20:01.550Z,100.00
2022-09-10T01:22:52.742Z,100.00
2022-09-10T01:25:46.414Z,100.00
2022-09-10T01:28:25.898Z,100.00
2022-09-10T01:31:01.917Z,100.00
2022-09-10T01:33:37.937Z,100.00
2022-09-10T01:36:19.280Z,100.00
2022-09-10T01:38:46.576Z,100.00
2022-09-10T01:41:13.658Z,100.00
2022-09-10T01:43:41.918Z,100.00
2022-09-10T01:46:25.652Z,100.00
2022-09-10T01:49:01.201Z,100.00
2022-09-10T01:51:47.296Z,100.00
2022-09-10T01:54:33.559Z,100.00
2022-09-10T01:57:24.611Z,99.20
2022-09-10T02:00:09.892Z,97.14
2022-09-10T02:02:57.834Z,96.49
2022-09-10T02:05:27.126Z,95.60
2022-09-10T02:07:58.539Z,95.66
2022-09-10T02:10:25.162Z,94.78
2022-09-10T02:12:51.730Z,94.75
2022-09-10T02:15:19.648Z,94.54
2022-09-10T02:17:47.072Z,94.29
2022-09-10T02:20:14.695Z,95.19
2022-09-10T02:22:58.577Z,94.80
2022-09-10T02:25:31.783Z,94.36
2022-09-10T02:27:58.568Z,93.41
2022-09-10T02:30:25.192Z,94.29
2022-09-10T02:32:51.634Z,93.30
2022-09-10T02:35:18.262Z,93.66
2022-09-10T02:37:44.679Z,93.21
2022-09-10T02:40:12.009Z,93.84
2022-09-10T02:42:38.471Z,94.26
2022-09-10T02:45:05.505Z,94.23
2022-09-10T02:47:32.048Z,93.89
2022-09-10T02:49:58.497Z,94.43
2022-09-10T02:52:25.793Z,94.38
2022-09-10T02:54:52.257Z,93.87
2022-09-10T02:57:18.714Z,93.47
2022-09-10T02:59:45.174Z,93.24
2022-09-10T03:02:11.684Z,93.54
2022-09-10T03:04:38.602Z,93.88
2022-09-10T03:07:05.104Z,92.43
2022-09-10T03:09:31.557Z,92.72
2022-09-10T03:11:58.065Z,93.16
2022-09-10T03:14:25.787Z,93.50
2022-09-10T03:16:52.600Z,94.03
2022-09-10T03:19:19.592Z,94.79
2022-09-10T03:21:47.502Z,94.97
2022-09-10T03:24:15.550Z,94.06
2022-09-10T03:26:43.382Z,94.14
2022-09-10T03:29:09.930Z,94.09
2022-09-10T03:31:36.880Z,94.86
2022-09-10T03:34:04.386Z,97.38
2022-09-10T03:36:31.410Z,96.80
2022-09-10T03:39:00.922Z,98.13
2022-09-10T03:41:28.420Z,97.46
2022-09-10T03:43:55.557Z,98.52
2022-09-10T03:46:22.751Z,98.67
2022-09-10T03:48:54.600Z,97.93
2022-09-10T03:51:21.775Z,97.71
2022-09-10T03:53:48.309Z,95.77
2022-09-10T03:56:15.482Z,98.92
2022-09-10T03:58:41.898Z,97.71
2022-09-10T04:01:08.596Z,99.06
2022-09-10T04:03:35.101Z,99.31
2022-09-10T04:06:01.581Z,99.66
2022-09-10T04:08:28.027Z,100.00
2022-09-10T04:10:55.114Z,100.00
2022-09-10T04:13:23.046Z,100.00
2022-09-10T04:15:49.581Z,100.00
2022-09-10T04:18:16.012Z,100.00
2022-09-10T04:20:46.910Z,100.00
2022-09-10T04:23:13.811Z,100.00
2022-09-10T04:25:40.281Z,100.00
2022-09-10T04:28:06.875Z,100.00
2022-09-10T04:30:33.440Z,100.00
2022-09-10T04:33:00.748Z,100.00
2022-09-10T04:35:27.171Z,100.00
2022-09-10T04:37:53.642Z,100.00
2022-09-10T04:40:20.110Z,100.00
2022-09-10T04:42:46.541Z,99.87
2022-09-10T04:45:12.992Z,100.00
2022-09-10T04:47:39.551Z,100.00
2022-09-10T04:50:06.831Z,100.00
2022-09-10T04:52:34.364Z,100.00
2022-09-10T04:55:00.794Z,100.00
2022-09-10T04:57:27.960Z,100.00
2022-09-10T04:59:54.384Z,100.00
2022-09-10T05:02:21.270Z,100.00
2022-09-10T05:04:47.741Z,100.00
2022-09-10T05:07:14.181Z,100.00
2022-09-10T05:09:40.644Z,100.00
2022-09-10T05:12:07.259Z,99.49
2022-09-10T05:14:33.904Z,98.59
2022-09-10T05:17:00.368Z,98.71
2022-09-10T05:19:26.889Z,99.11
2022-09-10T05:21:53.332Z,100.00
2022-09-10T05:24:19.790Z,99.59
2022-09-10T05:26:46.375Z,100.00
2022-09-10T05:29:13.997Z,99.16
2022-09-10T05:31:41.019Z,97.85
2022-09-10T05:34:08.402Z,98.28
2022-09-10T05:36:35.498Z,97.45
2022-09-10T05:39:03.819Z,97.71
2022-09-10T05:41:31.143Z,97.38
2022-09-10T05:43:58.179Z,97.15
2022-09-10T05:46:24.761Z,97.00
2022-09-10T05:48:54.061Z,96.34
2022-09-10T05:51:20.682Z,96.53
2022-09-10T05:53:47.157Z,96.40
2022-09-10T05:56:13.626Z,94.93
2022-09-10T05:58:40.192Z,94.55
2022-09-10T06:01:06.779Z,93.25
2022-09-10T06:03:33.359Z,92.86
2022-09-10T06:05:59.784Z,94.38
2022-09-10T06:08:26.227Z,95.03
2022-09-10T06:10:57.069Z,93.92
2022-09-10T06:13:24.554Z,93.88
2022-09-10T06:15:50.986Z,93.37
2022-09-10T06:18:17.726Z,92.56
2022-09-10T06:20:44.233Z,93.20
2022-09-10T06:23:12.018Z,93.66
2022-09-10T06:25:38.685Z,93.35
2022-09-10T06:28:05.133Z,93.06
2022-09-10T06:30:32.115Z,94.01
2022-09-10T06:32:58.575Z,92.38
2022-09-10T06:35:27.103Z,91.23
2022-09-10T06:37:54.598Z,94.11
2022-09-10T06:40:21.124Z,93.88
2022-09-10T06:42:48.488Z,91.38
2022-09-10T06:45:15.000Z,93.18
2022-09-10T06:50:28.394Z,91.14
2022-09-10T06:52:54.809Z,91.94
2022-09-10T06:55:21.426Z,91.34
2022-09-10T06:57:47.880Z,91.42
2022-09-10T07:00:15.041Z,92.34
2022-09-10T07:02:41.454Z,92.70
2022-09-10T07:05:08.176Z,91.32
2022-09-10T07:07:34.661Z,91.78
2022-09-10T07:10:01.461Z,90.08
2022-09-10T07:12:28.014Z,90.87
2022-09-10T07:14:54.717Z,91.13
2022-09-10T07:17:21.261Z,93.13
2022-09-10T07:19:48.128Z,89.74
2022-09-10T07:22:14.537Z,90.31
2022-09-10T07:24:41.059Z,89.36
2022-09-10T07:27:07.497Z,89.06
2022-09-10T07:29:35.242Z,89.34
2022-09-10T07:32:04.305Z,89.23
2022-09-10T07:34:30.743Z,86.60
2022-09-10T07:36:57.205Z,89.53
2022-09-10T07:39:25.770Z,88.02
2022-09-10T07:41:53.358Z,89.05
2022-09-10T07:44:20.113Z,87.75
2022-09-10T07:46:47.213Z,86.06
2022-09-10T07:49:13.672Z,87.06
2022-09-10T07:51:40.087Z,85.99
2022-09-10T07:54:06.654Z,82.31
2022-09-10T07:56:34.723Z,84.75
2022-09-10T07:59:02.677Z,83.63
2022-09-10T08:01:29.190Z,84.28
2022-09-10T08:03:57.460Z,83.51
2022-09-10T08:06:24.525Z,83.79
2022-09-10T08:08:50.954Z,84.63
2022-09-10T08:11:18.742Z,84.52
2022-09-10T08:13:49.473Z,84.58
2022-09-10T08:16:21.343Z,85.52
2022-09-10T08:18:48.684Z,84.07
2022-09-10T08:21:16.941Z,83.50
2022-09-10T08:23:51.711Z,84.67
2022-09-10T08:26:18.642Z,84.63
2022-09-10T08:28:45.197Z,84.57
2022-09-10T08:31:12.800Z,83.94
2022-09-10T08:33:40.155Z,84.21
2022-09-10T08:36:10.352Z,85.13
2022-09-10T08:38:39.959Z,86.66
2022-09-10T08:41:13.790Z,88.45
2022-09-10T08:43:55.442Z,88.05
2022-09-10T08:46:29.348Z,88.31
2022-09-10T08:49:16.604Z,90.05
2022-09-10T08:52:00.615Z,90.81
2022-09-10T08:54:37.532Z,92.41
2022-09-10T08:57:06.702Z,91.36
2022-09-10T08:59:40.630Z,91.20
2022-09-10T09:02:31.682Z,91.83
2022-09-10T09:05:14.190Z,90.96
2022-09-10T09:07:40.874Z,91.32
2022-09-10T09:10:25.725Z,90.00
2022-09-10T09:13:10.515Z,89.23
2022-09-10T09:15:54.495Z,90.37
2022-09-10T09:18:27.998Z,88.44
2022-09-10T09:21:06.976Z,88.67
2022-09-10T09:24:11.822Z,88.87
2022-09-10T09:26:38.050Z,88.74
2022-09-10T09:29:15.517Z,89.19
2022-09-10T09:31:47.288Z,89.48
2022-09-10T09:34:28.099Z,89.72
2022-09-10T09:36:58.889Z,89.66
2022-09-10T09:39:54.094Z,89.11
2022-09-10T09:42:29.367Z,88.68
2022-09-10T09:45:24.767Z,88.41
2022-09-10T09:47:54.420Z,88.04
2022-09-10T09:50:21.006Z,88.26
2022-09-10T09:52:47.984Z,87.50
2022-09-10T09:55:30.970Z,88.00
2022-09-10T09:58:19.128Z,86.95
2022-09-10T10:00:45.638Z,87.10
2022-09-10T10:03:20.443Z,87.00
2022-09-10T10:05:48.653Z,85.97
2022-09-10T10:08:34.114Z,86.14
2022-09-10T10:11:01.515Z,85.70
2022-09-10T10:13:43.199Z,86.94
2022-09-10T10:16:22.955Z,84.28
2022-09-10T10:18:50.782Z,84.37
2022-09-10T10:21:22.309Z,81.73
2022-09-10T10:23:49.516Z,82.13
2022-09-10T10:26:22.073Z,81.57
2022-09-10T10:28:51.736Z,81.84
2022-09-10T10:31:19.711Z,80.17
2022-09-10T10:33:59.507Z,79.91
2022-09-10T10:36:33.008Z,80.39
2022-09-10T10:39:44.457Z,80.87
2022-09-10T10:42:22.643Z,78.80
2022-09-10T10:45:01.382Z,77.45
2022-09-10T10:47:43.505Z,75.49
2022-09-10T10:50:28.413Z,73.64
2022-09-10T10:53:13.291Z,75.05
2022-09-10T10:55:50.398Z,74.60
2022-09-10T10:58:20.255Z,76.90
2022-09-10T11:00:57.642Z,77.57
2022-09-10T11:03:56.162Z,76.46
2022-09-10T11:06:27.331Z,76.27
2022-09-10T11:08:59.250Z,77.11
2022-09-10T11:11:58.021Z,77.24
2022-09-10T11:14:45.726Z,78.12
2022-09-10T11:17:27.143Z,77.49
2022-09-10T11:20:29.891Z,78.04
2022-09-10T11:23:34.057Z,77.33
2022-09-10T11:26:12.214Z,76.53
2022-09-10T11:28:47.295Z,77.71
2022-09-10T11:31:32.312Z,77.86
2022-09-10T11:34:15.889Z,78.34
2022-09-10T11:36:48.773Z,79.59
2022-09-10T11:39:24.458Z,79.24
2022-09-10T11:41:54.810Z,78.50
2022-09-10T11:44:36.222Z,78.48
2022-09-10T11:47:30.235Z,79.49
2022-09-10T11:50:10.317Z,80.00
2022-09-10T11:52:37.134Z,78.61
2022-09-10T11:55:04.352Z,78.58
2022-09-10T11:58:12.141Z,77.56
2022-09-10T12:01:16.708Z,75.43
2022-09-10T12:04:06.129Z,77.28
2022-09-10T12:06:55.393Z,74.82
2022-09-10T12:09:35.721Z,77.05
2022-09-10T12:12:33.536Z,75.37
2022-09-10T12:15:00.202Z,75.60
2022-09-10T12:17:34.370Z,76.24
2022-09-10T12:20:04.522Z,75.07
2022-09-10T12:22:37.489Z,74.91
2022-09-10T12:25:04.022Z,78.41
2022-09-10T12:27:51.192Z,79.09
2022-09-10T12:30:45.068Z,78.22
2022-09-10T12:33:11.514Z,77.92
2022-09-10T12:35:46.125Z,75.89
2022-09-10T12:38:48.140Z,74.31
2022-09-10T12:41:36.136Z,74.21
2022-09-10T12:44:24.937Z,74.37
2022-09-10T12:47:15.974Z,73.69
2022-09-10T12:49:50.423Z,73.28
2022-09-10T12:52:34.924Z,73.46
2022-09-10T12:55:21.301Z,77.13
2022-09-10T12:58:23.839Z,79.41
2022-09-10T13:01:12.024Z,82.60
2022-09-10T13:03:50.028Z,86.00
2022-09-10T13:06:16.986Z,86.28
2022-09-10T13:08:47.582Z,87.08
2022-09-10T13:11:24.704Z,89.18
2022-09-10T13:14:02.374Z,92.30
2022-09-10T13:16:28.896Z,95.05
2022-09-10T13:19:13.610Z,96.46
2022-09-10T13:21:43.145Z,97.80
2022-09-10T13:24:35.630Z,98.39
2022-09-10T13:27:17.160Z,99.32
2022-09-10T13:29:47.497Z,100.00
2022-09-10T13:32:48.190Z,100.00
2022-09-10T13:35:14.578Z,100.00
2022-09-10T13:38:35.740Z,99.43
2022-09-10T13:41:25.755Z,98.02
2022-09-10T13:44:10.978Z,98.76
2022-09-10T13:46:47.792Z,96.88
2022-09-10T13:49:20.027Z,96.95
2022-09-10T13:51:54.506Z,95.96
2022-09-10T13:54:33.229Z,95.07
2022-09-10T13:57:23.607Z,95.52
2022-09-10T13:59:55.181Z,95.85
2022-09-10T14:02:21.775Z,95.11
2022-09-10T14:04:48.486Z,92.90
2022-09-10T14:07:28.550Z,92.32
2022-09-10T14:10:06.708Z,90.79
2022-09-10T14:12:35.688Z,92.64
2022-09-10T14:15:05.500Z,89.17
2022-09-10T14:17:38.873Z,89.99
2022-09-10T14:20:27.302Z,90.19
2022-09-10T14:22:59.771Z,89.83
2022-09-10T14:25:38.368Z,87.11
2022-09-10T14:28:16.775Z,86.89
2022-09-10T14:30:45.454Z,89.66
2022-09-10T14:33:36.705Z,90.03
2022-09-10T14:36:14.182Z,89.08
2022-09-10T14:38:42.368Z,89.49
2022-09-10T14:41:27.430Z,87.95
2022-09-10T14:44:15.173Z,86.08
2022-09-10T14:47:01.207Z,86.41
2022-09-10T14:49:34.144Z,86.19
2022-09-10T14:52:01.769Z,86.47
2022-09-10T14:54:29.904Z,87.09
2022-09-10T14:56:58.632Z,86.49
2022-09-10T14:59:32.142Z,87.05
2022-09-10T15:02:03.204Z,86.15
2022-09-10T15:04:30.162Z,87.82
2022-09-10T15:07:00.708Z,88.97
2022-09-10T15:09:28.794Z,87.43
2022-09-10T15:12:05.753Z,86.72
2022-09-10T15:14:33.633Z,88.15
2022-09-10T15:17:00.184Z,89.42
2022-09-10T15:19:26.877Z,88.02
2022-09-10T15:21:53.463Z,87.89
2022-09-10T15:24:22.462Z,88.47
2022-09-10T15:26:49.718Z,87.06
2022-09-10T15:29:17.768Z,85.68
2022-09-10T15:31:44.663Z,85.72
2022-09-10T15:34:11.971Z,83.88
2022-09-10T15:36:40.027Z,83.63
2022-09-10T15:39:07.921Z,83.72
2022-09-10T15:41:34.537Z,81.87
2022-09-10T15:44:03.158Z,81.45
2022-09-10T15:46:29.802Z,80.24
2022-09-10T15:48:58.709Z,82.40
2022-09-10T15:51:25.630Z,83.52
2022-09-10T15:53:53.376Z,81.66
2022-09-10T15:56:21.411Z,83.19
2022-09-10T15:58:50.430Z,83.45
2022-09-10T16:01:17.431Z,82.18
2022-09-10T16:03:47.117Z,84.42
2022-09-10T16:06:15.597Z,83.68
2022-09-10T16:08:42.168Z,83.77
2022-09-10T16:11:14.138Z,83.87
2022-09-10T16:13:40.726Z,83.33
2022-09-10T16:16:10.559Z,83.56
2022-09-10T16:18:37.183Z,82.62
2022-09-10T16:21:24.171Z,86.29
2022-09-10T16:23:51.918Z,83.94
2022-09-10T16:26:27.666Z,84.05
2022-09-10T16:28:59.068Z,84.67
2022-09-10T16:31:31.299Z,85.94
2022-09-10T16:34:00.393Z,86.69
2022-09-10T16:36:27.345Z,86.80
2022-09-10T16:38:55.883Z,87.20
2022-09-10T16:41:26.180Z,87.94
2022-09-10T16:43:53.548Z,87.78
2022-09-10T16:46:20.373Z,88.33
2022-09-10T16:48:47.105Z,88.10
2022-09-10T16:51:19.670Z,87.22
2022-09-10T16:53:52.548Z,87.04
2022-09-10T16:56:19.068Z,87.88
2022-09-10T16:58:47.647Z,88.12
2022-09-10T17:01:15.180Z,87.74
2022-09-10T17:03:43.684Z,88.69
2022-09-10T17:06:21.704Z,88.46
2022-09-10T17:08:48.477Z,88.03
2022-09-10T17:11:17.579Z,87.75
2022-09-10T17:13:44.353Z,87.41
2022-09-10T17:16:30.543Z,89.26
2022-09-10T17:19:03.183Z,88.80
2022-09-10T17:21:31.757Z,89.04
2022-09-10T17:23:59.302Z,89.11
2022-09-10T17:26:27.049Z,89.44
2022-09-10T17:28:59.542Z,89.47
2022-09-10T17:31:27.705Z,89.24
2022-09-10T17:33:55.689Z,89.62
2022-09-10T17:36:25.264Z,89.93
2022-09-10T17:38:56.303Z,89.44
2022-09-10T17:41:24.004Z,89.31
2022-09-10T17:43:51.075Z,89.66
2022-09-10T17:46:20.328Z,89.09
2022-09-10T17:48:48.212Z,89.25
2022-09-10T17:51:19.901Z,89.22
2022-09-10T17:53:46.577Z,89.71
2022-09-10T17:56:15.459Z,90.46
2022-09-10T17:58:42.812Z,90.47
2022-09-10T18:01:13.920Z,90.74
2022-09-10T18:04:01.162Z,90.72
2022-09-10T18:06:29.207Z,90.15
2022-09-10T18:09:00.630Z,90.72
2022-09-10T18:11:30.145Z,91.08
2022-09-10T18:13:57.951Z,91.34
2022-09-10T18:16:27.129Z,91.04
2022-09-10T18:19:00.128Z,90.73
2022-09-10T18:21:35.486Z,92.25
2022-09-10T18:24:03.521Z,91.02
2022-09-10T18:26:35.979Z,92.28
2022-09-10T18:29:06.245Z,91.66
2022-09-10T18:31:35.645Z,92.10
2022-09-10T18:34:03.848Z,92.39
2022-09-10T18:36:31.627Z,91.88
2022-09-10T18:39:03.338Z,92.08
2022-09-10T18:41:33.142Z,92.34
2022-09-10T18:44:04.128Z,92.63
2022-09-10T18:46:32.782Z,93.36
2022-09-10T18:49:00.826Z,93.07
2022-09-10T18:51:30.322Z,93.36
2022-09-10T18:54:01.575Z,93.80
2022-09-10T18:56:30.985Z,93.63
2022-09-10T18:59:00.936Z,94.45
2022-09-10T19:01:29.931Z,94.56
2022-09-10T19:03:57.825Z,94.29
2022-09-10T19:06:32.324Z,95.34
2022-09-10T19:09:05.692Z,95.14
2022-09-10T19:11:38.378Z,96.00
2022-09-10T19:14:18.334Z,95.52
2022-09-10T19:16:46.965Z,96.34
2022-09-10T19:19:19.996Z,96.48
2022-09-10T19:21:49.188Z,95.95
2022-09-10T19:24:17.874Z,96.94
2022-09-10T19:26:45.014Z,96.92
2022-09-10T19:29:17.123Z,96.96
2022-09-10T19:31:46.577Z,97.03
2022-09-10T19:34:15.226Z,97.33
2022-09-10T19:36:43.818Z,97.80
2022-09-10T19:39:13.552Z,97.61
2022-09-10T19:41:42.099Z,97.66
2022-09-10T19:44:10.386Z,98.55
2022-09-10T19:46:38.801Z,98.11
2022-09-10T19:49:07.005Z,98.43
2022-09-10T19:51:36.111Z,98.70
2022-09-10T19:54:03.851Z,98.80
2022-09-10T19:56:34.173Z,98.32
2022-09-10T19:59:03.045Z,98.90
2022-09-10T20:01:33.227Z,98.59
2022-09-10T20:04:01.949Z,98.60
2022-09-10T20:06:30.094Z,99.27
2022-09-10T20:08:58.252Z,98.67
2022-09-10T20:11:27.977Z,98.36
2022-09-10T20:13:57.622Z,98.41
2022-09-10T20:16:29.333Z,98.93
2022-09-10T20:18:56.396Z,98.52
2022-09-10T20:21:31.498Z,98.27
2022-09-10T20:23:59.025Z,99.09
2022-09-10T20:26:34.197Z,98.71
2022-09-10T20:29:04.276Z,99.37
2022-09-10T20:31:33.773Z,99.26
2022-09-10T20:34:06.062Z,99.35
2022-09-10T20:36:35.102Z,99.29
2022-09-10T20:39:25.619Z,99.06
2022-09-10T20:41:52.908Z,99.46
2022-09-10T20:44:20.927Z,99.27
2022-09-10T20:46:47.919Z,99.90
2022-09-10T20:49:16.405Z,99.28
2022-09-10T20:51:44.959Z,99.65
2022-09-10T20:54:15.075Z,99.45
2022-09-10T20:56:42.218Z,99.12
2022-09-10T20:59:10.996Z,99.42
2022-09-10T21:01:38.758Z,99.16
2022-09-10T21:04:05.382Z,99.22
2022-09-10T21:06:33.646Z,99.27
2022-09-10T21:09:02.084Z,98.81
2022-09-10T21:11:31.101Z,99.05
2022-09-10T21:14:00.295Z,99.02
2022-09-10T21:16:32.196Z,98.92
2022-09-10T21:19:04.836Z,98.85
2022-09-10T21:21:34.102Z,98.76
2022-09-10T21:24:04.171Z,98.63
2022-09-10T21:26:36.027Z,98.71
2022-09-10T21:29:05.102Z,99.08
2022-09-10T21:31:32.151Z,98.11
2022-09-10T21:34:02.941Z,98.36
2022-09-10T21:36:31.701Z,97.65
2022-09-10T21:39:00.435Z,98.05
2022-09-10T21:41:31.712Z,98.10
2022-09-10T21:44:03.644Z,98.90
2022-09-10T21:46:31.248Z,98.56
2022-09-10T21:48:58.527Z,98.00
2022-09-10T21:51:25.236Z,98.90
2022-09-10T21:53:54.981Z,98.87
2022-09-10T21:56:22.435Z,98.78
2022-09-10T21:58:48.952Z,98.62
2022-09-10T22:01:19.398Z,98.42
2022-09-10T22:03:50.187Z,98.57
2022-09-10T22:06:18.633Z,98.65
2022-09-10T22:08:48.127Z,98.28
2022-09-10T22:11:21.714Z,99.04
2022-09-10T22:13:55.624Z,98.28
2022-09-10T22:16:25.180Z,98.50
2022-09-10T22:18:52.476Z,98.23
2022-09-10T22:21:19.211Z,99.30
2022-09-10T22:23:46.361Z,98.36
2022-09-10T22:26:18.599Z,99.29
2022-09-10T22:28:45.578Z,99.66
2022-09-10T22:31:19.030Z,99.47
2022-09-10T22:33:50.423Z,99.67
2022-09-10T22:36:44.581Z,99.28
2022-09-10T22:39:12.854Z,99.75
2022-09-10T22:41:39.791Z,99.00
2022-09-10T22:44:07.201Z,99.46
2022-09-10T22:46:35.412Z,98.88
2022-09-10T22:49:01.945Z,99.14
2022-09-10T22:51:31.539Z,98.48
2022-09-10T22:53:58.229Z,98.97
2022-09-10T22:56:26.799Z,98.78
2022-09-10T22:58:55.544Z,99.26
2022-09-10T23:01:27.721Z,98.69
2022-09-10T23:03:59.126Z,99.06
2022-09-10T23:06:27.808Z,98.93
2022-09-10T23:08:56.744Z,98.99
2022-09-10T23:11:26.236Z,99.31
2022-09-10T23:13:57.417Z,99.63
2022-09-10T23:16:30.163Z,99.64
2022-09-10T23:18:58.369Z,99.23
2022-09-10T23:21:27.131Z,99.28
2022-09-10T23:23:56.136Z,100.00
2022-09-10T23:26:23.725Z,99.81
2022-09-10T23:28:50.603Z,100.00
2022-09-10T23:31:20.993Z,100.00
2022-09-10T23:33:59.215Z,100.00
2022-09-10T23:36:31.396Z,100.00
2022-09-10T23:38:59.019Z,100.00
2022-09-10T23:41:26.098Z,100.00
2022-09-10T23:43:52.928Z,100.00
2022-09-10T23:46:19.883Z,100.00
2022-09-10T23:48:46.628Z,100.00
2022-09-10T23:51:15.574Z,100.00
2022-09-10T23:53:44.960Z,100.00
2022-09-10T23:56:13.335Z,100.00
2022-09-10T23:58:40.344Z,100.00
